Time;durP1;ratioP1;P1;durP2;ratioP2;P2;SDS_P1;SDS_P2;PMS_P1;PMS_P2;Temp;Humidity;BMP_temperature;BMP_pressure;BME280_temperature;BME280_humidity;BME280_pressure;Samples;Min_cycle;Max_cycle;Signal;HPM_P1;HPM_P2
2023/05/10 00:01:34;;;;;;;1.52;0.70;;;;;;;11.83;50.86;100778.66;15547961;28;20080;-55
2023/05/10 00:09:07;;;;;;;6.32;1.10;;;;;;;11.93;50.98;100779.81;15549758;28;20046;-54
2023/05/10 00:16:42;;;;;;;1.52;0.85;;;;;;;11.65;51.52;100771.31;15510729;28;20066;-51
2023/05/10 00:24:16;;;;;;;1.90;0.98;;;;;;;11.58;51.88;100760.59;15549872;28;20054;-51
2023/05/10 00:31:52;;;;;;;1.15;0.88;;;;;;;11.65;51.81;100747.09;15546544;28;20611;-51
2023/05/10 00:39:26;;;;;;;4.95;1.05;;;;;;;11.56;52.00;100746.53;15545616;28;20404;-51
2023/05/10 00:47:08;;;;;;;2.35;1.05;;;;;;;11.30;52.79;100747.53;15514054;28;20065;-50
2023/05/10 00:54:41;;;;;;;2.63;1.30;;;;;;;11.29;52.80;100739.69;15528440;28;20532;-52
2023/05/10 01:02:15;;;;;;;2.97;0.80;;;;;;;11.21;52.92;100733.53;15548479;28;20042;-52
2023/05/10 01:09:48;;;;;;;1.65;1.00;;;;;;;11.09;53.47;100729.03;15545935;28;20065;-54
2023/05/10 01:17:25;;;;;;;1.17;0.60;;;;;;;11.06;53.46;100726.78;15547647;28;20084;-53
2023/05/10 01:25:32;;;;;;;1.35;0.93;;;;;;;10.97;54.13;100728.88;15547853;28;20042;-51
2023/05/10 01:33:12;;;;;;;3.17;1.13;;;;;;;10.76;54.53;100721.09;15542454;28;20044;-55
2023/05/10 01:40:53;;;;;;;2.00;1.25;;;;;;;10.61;55.18;100718.69;15513933;28;20120;-51
2023/05/10 01:48:31;;;;;;;2.28;1.20;;;;;;;10.36;55.71;100707.81;15522175;28;20129;-52
2023/05/10 01:56:08;;;;;;;4.55;1.90;;;;;;;10.39;55.80;100718.09;15528095;28;20042;-52
2023/05/10 02:03:46;;;;;;;2.53;1.27;;;;;;;10.11;56.68;100710.28;15488023;28;20503;-54
2023/05/10 02:11:21;;;;;;;2.53;1.08;;;;;;;10.14;56.75;100710.69;15540333;28;20111;-53
2023/05/10 02:18:59;;;;;;;2.17;0.68;;;;;;;10.20;56.42;100706.34;15558740;28;20042;-53
2023/05/10 02:26:36;;;;;;;0.47;0.45;;;;;;;10.27;56.27;100709.06;15514129;28;20052;-53
2023/05/10 02:34:14;;;;;;;0.95;0.73;;;;;;;9.96;57.14;100697.09;15532822;28;20233;-53
2023/05/10 02:41:49;;;;;;;1.50;0.88;;;;;;;9.90;57.38;100693.38;15495656;28;20046;-51
2023/05/10 02:49:24;;;;;;;0.95;0.75;;;;;;;9.88;57.53;100697.28;15531974;28;20047;-52
2023/05/10 02:57:00;;;;;;;2.50;1.00;;;;;;;9.78;57.80;100703.06;15533647;28;20149;-54
2023/05/10 03:04:34;;;;;;;1.63;1.50;;;;;;;9.67;58.11;100693.78;15530903;28;20050;-50
2023/05/10 03:12:17;;;;;;;2.35;1.15;;;;;;;9.53;58.53;100700.16;15522819;28;20080;-55
2023/05/10 03:19:55;;;;;;;2.53;1.45;;;;;;;9.51;58.80;100691.50;15532118;28;20038;-51
2023/05/10 03:27:31;;;;;;;1.30;0.55;;;;;;;9.56;58.68;100688.19;15505570;28;20104;-51
2023/05/10 03:35:09;;;;;;;0.60;0.60;;;;;;;9.31;59.46;100691.47;15534424;28;20041;-52
2023/05/10 03:42:42;;;;;;;0.85;0.80;;;;;;;9.20;59.83;100687.53;15517480;28;20076;-52
2023/05/10 03:50:16;;;;;;;4.10;1.20;;;;;;;9.22;59.45;100687.31;15527317;28;20129;-53
2023/05/10 03:57:50;;;;;;;1.38;1.27;;;;;;;9.47;59.24;100676.88;15513029;28;20054;-55
2023/05/10 04:05:24;;;;;;;;;;;;;;;9.56;58.82;100685.53;15535173;28;20050;-51
2023/05/10 04:12:59;;;;;;;2.13;1.38;;;;;;;9.32;59.05;100652.13;15512367;28;20441;-52
2023/05/10 04:20:34;;;;;;;2.10;1.10;;;;;;;9.68;58.65;100683.88;15542405;28;20030;-54
2023/05/10 04:28:08;;;;;;;2.35;1.15;;;;;;;9.64;58.74;100672.75;15541236;28;20038;-51
2023/05/10 04:35:42;;;;;;;1.17;1.07;;;;;;;9.91;57.69;100670.06;15552589;28;20057;-53
2023/05/10 04:43:15;;;;;;;1.38;1.17;;;;;;;10.09;57.25;100670.25;15550557;28;20077;-54
2023/05/10 04:50:49;;;;;;;0.60;0.60;;;;;;;10.35;56.51;100661.38;15505794;28;20059;-52
2023/05/10 04:58:22;;;;;;;0.80;0.80;;;;;;;10.52;56.27;100660.91;15523100;28;20077;-53
2023/05/10 05:05:56;;;;;;;1.40;1.00;;;;;;;10.71;55.58;100671.56;15534763;28;20053;-51
2023/05/10 05:13:29;;;;;;;1.38;1.00;;;;;;;11.28;54.64;100670.84;15506788;28;20046;-52
2023/05/10 05:21:04;;;;;;;1.97;1.07;;;;;;;11.39;54.03;100668.31;15521319;28;20041;-50
2023/05/10 05:28:38;;;;;;;2.50;0.80;;;;;;;11.77;52.47;100656.63;15550462;28;20049;-52
2023/05/10 05:36:13;;;;;;;2.28;0.95;;;;;;;12.14;52.58;100671.03;15535672;28;20050;-51
2023/05/10 05:43:45;;;;;;;2.17;0.80;;;;;;;13.42;49.17;100666.53;15555215;28;20467;-51
2023/05/10 05:51:20;;;;;;;2.17;1.33;;;;;;;13.47;48.54;100663.97;15545661;28;20085;-52
2023/05/10 05:58:52;;;;;;;0.40;0.30;;;;;;;14.13;48.08;100657.50;15566303;28;20049;-51
2023/05/10 06:06:26;;;;;;;0.50;0.40;;;;;;;14.68;46.58;100658.94;15562436;28;20407;-54
2023/05/10 06:14:00;;;;;;;1.40;0.93;;;;;;;15.11;45.55;100658.44;15545486;28;20071;-50
2023/05/10 06:21:34;;;;;;;1.48;1.00;;;;;;;15.80;42.82;100660.97;15561289;28;20604;-51
2023/05/10 06:29:07;;;;;;;1.92;0.75;;;;;;;15.37;44.31;100657.00;15542930;28;20107;-50
2023/05/10 06:36:41;;;;;;;0.73;0.23;;;;;;;15.80;44.72;100663.69;15561464;28;20046;-54
2023/05/10 06:44:14;;;;;;;1.42;0.57;;;;;;;16.21;43.45;100654.28;15560783;28;20050;-53
2023/05/10 06:51:49;;;;;;;1.40;0.47;;;;;;;16.21;43.25;100661.59;15560815;28;20038;-53
2023/05/10 06:59:21;;;;;;;1.13;0.90;;;;;;;16.57;42.29;100663.72;15558942;28;20072;-50
2023/05/10 07:06:56;;;;;;;1.40;0.80;;;;;;;17.59;40.03;100661.31;15560100;28;20049;-50
2023/05/10 07:14:29;;;;;;;1.50;0.70;;;;;;;17.49;40.45;100659.31;15551496;28;20296;-52
2023/05/10 07:22:03;;;;;;;1.15;0.30;;;;;;;18.34;38.59;100648.53;15538690;28;20042;-55
2023/05/10 07:29:37;;;;;;;0.77;0.43;;;;;;;19.85;35.43;100642.91;15555314;28;20046;-53
2023/05/10 07:37:11;;;;;;;3.63;0.98;;;;;;;19.03;37.40;100651.00;15536837;28;20050;-52
2023/05/10 07:44:44;;;;;;;0.50;0.50;;;;;;;19.93;35.74;100663.31;15535325;28;20668;-56
2023/05/10 07:52:18;;;;;;;0.70;0.52;;;;;;;18.93;37.20;100652.84;15553919;28;20069;-51
2023/05/10 07:59:50;;;;;;;1.73;0.60;;;;;;;18.83;38.16;100643.56;15552870;28;20038;-50
2023/05/10 08:07:25;;;;;;;;;;;;;;;18.79;37.71;100647.94;15552913;28;20080;-49
2023/05/10 08:14:59;;;;;;;0.70;0.70;;;;;;;18.56;38.17;100660.06;15551332;28;19996;-51
2023/05/10 08:22:33;;;;;;;1.75;0.95;;;;;;;18.76;38.10;100663.97;15550527;28;20084;-51
2023/05/10 08:30:07;;;;;;;1.08;0.35;;;;;;;19.19;38.31;100657.28;15550631;28;20071;-53
2023/05/10 08:37:43;;;;;;;0.45;0.30;;;;;;;19.44;37.86;100656.47;15551471;28;20064;-50
2023/05/10 08:45:17;;;;;;;0.40;0.20;;;;;;;18.97;37.65;100660.22;15552174;28;20558;-52
2023/05/10 08:52:55;;;;;;;1.15;0.63;;;;;;;20.20;37.68;100663.00;15550417;28;20125;-52
2023/05/10 09:00:29;;;;;;;1.10;0.50;;;;;;;20.20;36.40;100657.56;15611787;28;20037;-56
2023/05/10 09:08:03;;;;;;;1.23;0.50;;;;;;;20.75;35.91;100655.75;15610957;28;20525;-54
2023/05/10 09:15:36;;;;;;;0.80;0.75;;;;;;;20.67;37.01;100665.34;15609629;28;20052;-51
2023/05/10 09:23:10;;;;;;;3.65;1.15;;;;;;;20.56;35.75;100671.91;15609759;28;20060;-51
2023/05/10 09:30:43;;;;;;;2.60;0.85;;;;;;;20.76;36.41;100660.13;15588625;28;20042;-54
2023/05/10 09:38:19;;;;;;;0.63;0.40;;;;;;;21.61;36.29;100671.59;15586974;28;20076;-52
2023/05/10 09:45:53;;;;;;;0.95;0.60;;;;;;;21.91;35.06;100670.50;15609078;28;20053;-51
2023/05/10 09:53:27;;;;;;;0.63;0.40;;;;;;;21.15;35.11;100646.53;15608264;28;20072;-51
2023/05/10 10:01:00;;;;;;;1.05;0.70;;;;;;;21.18;34.23;100678.72;15610491;28;20140;-55
2023/05/10 10:08:36;;;;;;;0.95;0.65;;;;;;;21.60;33.81;100669.19;15573076;28;20496;-53
2023/05/10 10:16:10;;;;;;;1.42;0.60;;;;;;;22.62;33.31;100665.44;15585102;28;20137;-52
2023/05/10 10:23:44;;;;;;;0.90;0.52;;;;;;;22.82;32.54;100662.44;15609576;28;20492;-51
2023/05/10 10:31:24;;;;;;;0.65;0.45;;;;;;;22.38;33.77;100643.53;15617320;28;20045;-51
2023/05/10 10:39:02;;;;;;;0.77;0.63;;;;;;;22.98;33.80;100652.09;15615943;28;20077;-54
2023/05/10 10:47:05;;;;;;;2.78;0.80;;;;;;;22.64;32.88;100655.81;15620150;28;20033;-52
2023/05/10 10:54:39;;;;;;;0.32;0.20;;;;;;;22.90;33.41;100650.88;15618626;28;20037;-51
2023/05/10 11:02:33;;;;;;;1.65;0.73;;;;;;;22.67;33.97;100648.94;15611675;23;20518;-71
2023/05/10 11:10:08;;;;;;;0.63;0.57;;;;;;;23.23;31.42;100648.19;15603837;28;20414;-71
2023/05/10 11:17:43;;;;;;;1.48;0.60;;;;;;;23.40;31.79;100634.75;15613741;28;20041;-70
2023/05/10 11:25:17;;;;;;;0.98;0.30;;;;;;;23.82;29.10;100640.41;15611187;28;20053;-70
2023/05/10 11:32:50;;;;;;;0.60;0.60;;;;;;;23.80;30.18;100637.16;15616277;28;20449;-70
2023/05/10 11:40:24;;;;;;;0.73;0.50;;;;;;;23.76;28.92;100636.13;15614551;28;20049;-70
2023/05/10 11:47:58;;;;;;;0.95;0.50;;;;;;;24.46;28.77;100633.19;15613958;28;20045;-71
2023/05/10 11:55:34;;;;;;;1.35;0.40;;;;;;;23.74;29.62;100644.66;15615150;28;20041;-71
2023/05/10 12:03:07;;;;;;;1.75;0.80;;;;;;;24.04;29.55;100640.53;15614623;28;20101;-71
2023/05/10 12:10:42;;;;;;;2.20;0.93;;;;;;;24.24;28.90;100644.00;15597184;28;20053;-71
2023/05/10 12:18:16;;;;;;;2.10;0.85;;;;;;;24.51;28.30;100644.03;15576463;28;20050;-71
2023/05/10 12:25:51;;;;;;;5.65;0.98;;;;;;;25.25;27.52;100654.81;15603976;28;20081;-71
2023/05/10 12:33:23;;;;;;;1.00;0.50;;;;;;;24.82;27.85;100657.94;15590256;28;20040;-71
2023/05/10 12:40:58;;;;;;;0.63;0.38;;;;;;;24.67;27.56;100642.63;15599386;28;20134;-71
2023/05/10 12:48:33;;;;;;;1.25;0.47;;;;;;;25.49;26.25;100651.75;15609330;28;20529;-72
2023/05/10 12:56:08;;;;;;;1.38;0.55;;;;;;;25.88;26.36;100648.34;15610342;28;20132;-73
2023/05/10 13:03:43;;;;;;;0.45;0.30;;;;;;;26.34;27.32;100649.81;15609539;28;20033;-71
2023/05/10 13:11:19;;;;;;;1.30;0.63;;;;;;;25.97;26.75;100645.59;15605816;28;20052;-71
2023/05/10 13:18:52;;;;;;;0.98;0.68;;;;;;;26.15;26.18;100649.25;15583649;28;20067;-72
2023/05/10 13:26:26;;;;;;;2.47;0.77;;;;;;;25.47;27.12;100621.03;15613541;28;20278;-70
2023/05/10 13:33:59;;;;;;;1.15;0.60;;;;;;;24.50;28.01;100645.16;15615004;28;20061;-72
2023/05/10 13:41:33;;;;;;;1.35;0.38;;;;;;;23.41;28.61;100633.66;15612379;28;20050;-70
2023/05/10 13:49:06;;;;;;;0.40;0.30;;;;;;;23.54;29.00;100628.53;15605868;28;20111;-72
2023/05/10 13:56:40;;;;;;;2.25;0.85;;;;;;;23.08;30.42;100629.25;15611153;28;20065;-73
2023/05/10 14:04:13;;;;;;;0.80;0.43;;;;;;;23.05;32.48;100635.34;15623620;28;20045;-71
2023/05/10 14:11:47;;;;;;;0.80;0.40;;;;;;;22.67;29.73;100633.34;15605598;28;20049;-70
2023/05/10 14:19:20;;;;;;;1.88;1.13;;;;;;;22.82;30.93;100629.59;15629746;28;20478;-70
2023/05/10 14:27:01;;;;;;;1.15;0.60;;;;;;;22.46;32.74;100634.69;15624453;28;20045;-69
2023/05/10 14:34:36;;;;;;;1.45;0.60;;;;;;;22.34;31.07;100631.59;15624947;28;20104;-71
2023/05/10 14:42:17;;;;;;;0.70;0.40;;;;;;;22.78;30.70;100630.47;15618957;28;20502;-72
2023/05/10 14:49:52;;;;;;;2.00;0.60;;;;;;;22.98;32.17;100630.22;15615402;28;20119;-72
2023/05/10 14:57:29;;;;;;;1.30;0.85;;;;;;;23.17;32.09;100631.03;15615464;28;20673;-72
2023/05/10 15:05:02;;;;;;;3.38;0.88;;;;;;;22.69;32.92;100633.03;15617275;28;20510;-71
2023/05/10 15:12:36;;;;;;;1.27;0.80;;;;;;;22.69;33.46;100626.75;15609310;28;20040;-73
2023/05/10 15:20:09;;;;;;;0.90;0.50;;;;;;;22.01;35.08;100634.09;15617882;28;20059;-70
2023/05/10 15:27:44;;;;;;;1.15;0.50;;;;;;;22.25;37.14;100650.53;15616049;28;20041;-70
2023/05/10 15:35:18;;;;;;;3.28;1.40;;;;;;;21.78;41.97;100657.53;15615692;28;20061;-71
2023/05/10 15:42:52;;;;;;;1.20;0.82;;;;;;;21.84;43.09;100669.25;15616027;28;20045;-72
2023/05/10 15:50:24;;;;;;;2.70;1.40;;;;;;;21.71;44.61;100670.72;15614664;28;20049;-71
2023/05/10 15:57:58;;;;;;;1.05;0.55;;;;;;;22.01;43.39;100685.19;15584809;28;20120;-70
2023/05/10 16:05:32;;;;;;;2.67;1.20;;;;;;;21.50;44.55;100693.84;15615621;28;20201;-71
2023/05/10 16:13:06;;;;;;;1.55;0.85;;;;;;;21.43;43.94;100694.13;15579988;28;20033;-71
2023/05/10 16:20:39;;;;;;;1.27;0.95;;;;;;;20.72;45.70;100695.31;15620178;28;20076;-73
2023/05/10 16:28:13;;;;;;;1.85;0.98;;;;;;;21.07;46.12;100715.34;15621321;28;20049;-73
2023/05/10 16:35:46;;;;;;;1.40;0.68;;;;;;;20.96;47.37;100716.50;15616305;28;20049;-72
2023/05/10 16:43:20;;;;;;;;;;;;;;;21.55;44.95;100727.38;15614674;28;20466;-74
2023/05/10 16:50:52;;;;;;;1.02;0.60;;;;;;;20.66;47.38;100729.16;15604558;28;19921;-71
2023/05/10 16:58:26;;;;;;;1.33;0.82;;;;;;;20.77;47.49;100733.47;15609843;28;20041;-72
2023/05/10 17:05:59;;;;;;;1.20;1.10;;;;;;;20.07;49.66;100746.97;15612539;28;20421;-72
2023/05/10 17:13:33;;;;;;;3.17;1.50;;;;;;;19.84;50.28;100740.13;15647954;28;20413;-72
2023/05/10 17:21:05;;;;;;;1.33;0.70;;;;;;;19.78;51.45;100763.03;15576467;28;20409;-75
2023/05/10 17:28:39;;;;;;;;;;;;;;;20.58;49.01;100766.00;15610584;28;20042;-75
2023/05/10 17:36:12;;;;;;;2.08;0.93;;;;;;;19.92;50.22;100766.03;15589439;28;19921;-73
2023/05/10 17:43:46;;;;;;;2.85;1.05;;;;;;;19.64;51.16;100783.72;15577023;28;20091;-75
2023/05/10 17:51:20;;;;;;;2.08;0.85;;;;;;;20.06;50.71;100788.94;15610909;28;20078;-73
2023/05/10 17:58:54;;;;;;;1.40;0.77;;;;;;;19.61;50.87;100790.50;15631540;28;20069;-72
2023/05/10 18:06:27;;;;;;;2.53;0.60;;;;;;;19.92;50.61;100792.47;15616513;28;20504;-71
2023/05/10 18:14:02;;;;;;;3.20;1.45;;;;;;;19.99;50.34;100801.16;15624950;28;20402;-75
2023/05/10 18:21:37;;;;;;;1.90;1.17;;;;;;;19.81;49.81;100810.69;15613470;28;20070;-74
2023/05/10 18:29:11;;;;;;;4.07;1.52;;;;;;;20.02;50.22;100814.25;15603565;28;20073;-74
2023/05/10 18:36:43;;;;;;;1.00;0.55;;;;;;;19.87;50.38;100824.06;15603924;28;20052;-74
2023/05/10 18:44:18;;;;;;;1.73;1.05;;;;;;;19.47;51.77;100834.81;15590539;28;20069;-74
2023/05/10 18:51:51;;;;;;;1.52;0.75;;;;;;;19.47;51.62;100835.63;15603867;28;20154;-74
2023/05/10 18:59:26;;;;;;;1.23;0.50;;;;;;;19.33;52.16;100848.09;15578984;28;20128;-74
2023/05/10 19:07:00;;;;;;;0.80;0.75;;;;;;;19.08;53.67;100860.50;15604570;28;20060;-72
2023/05/10 19:14:34;;;;;;;1.35;0.65;;;;;;;18.83;54.43;100869.31;15601174;28;20048;-74
2023/05/10 19:22:07;;;;;;;2.40;1.40;;;;;;;18.86;54.92;100882.41;15574053;28;20595;-74
2023/05/10 19:29:44;;;;;;;4.13;1.08;;;;;;;18.83;55.81;100882.91;15596333;28;20046;-73
2023/05/10 19:37:17;;;;;;;2.70;1.45;;;;;;;18.73;56.46;100882.84;15595188;28;20053;-72
2023/05/10 19:44:54;;;;;;;3.30;1.40;;;;;;;18.44;57.92;100898.63;15615810;28;20548;-73
2023/05/10 19:52:26;;;;;;;1.58;1.05;;;;;;;18.43;58.34;100907.03;15609683;28;20620;-72
2023/05/10 20:00:00;;;;;;;1.95;1.05;;;;;;;18.53;58.66;100907.94;15604803;28;20375;-73
2023/05/10 20:07:33;;;;;;;3.13;1.42;;;;;;;18.58;58.32;100916.13;15604386;28;20049;-72
2023/05/10 20:15:08;;;;;;;2.40;1.10;;;;;;;18.65;58.31;100917.81;15579488;28;20045;-73
2023/05/10 20:22:41;;;;;;;3.70;1.60;;;;;;;18.41;59.25;100929.03;15543960;28;20073;-73
2023/05/10 20:30:16;;;;;;;;;;;;;;;18.40;58.72;100932.81;15576736;28;20046;-73
2023/05/10 20:37:49;;;;;;;0.98;0.77;;;;;;;18.42;58.84;100925.25;15571352;28;19967;-73
2023/05/10 20:45:26;;;;;;;2.03;0.80;;;;;;;18.47;58.18;100930.75;15597876;28;20096;-73
2023/05/10 20:52:59;;;;;;;1.08;0.90;;;;;;;18.44;58.18;100919.56;15570419;28;20049;-73
2023/05/10 21:00:33;;;;;;;2.08;1.50;;;;;;;18.23;59.11;100915.81;15566861;28;20042;-74
2023/05/10 21:08:06;;;;;;;2.03;1.38;;;;;;;18.38;58.72;100937.72;15569271;28;20589;-74
2023/05/10 21:15:40;;;;;;;1.33;0.80;;;;;;;18.33;59.29;100935.78;15548125;28;20403;-74
2023/05/10 21:23:13;;;;;;;3.65;1.17;;;;;;;18.08;60.43;100938.22;15589014;28;20475;-72
2023/05/10 21:30:47;;;;;;;2.42;1.02;;;;;;;17.83;61.71;100946.91;15572954;28;20049;-73
2023/05/10 21:38:20;;;;;;;2.05;1.10;;;;;;;17.92;60.69;100942.66;15551994;28;20517;-72
2023/05/10 21:45:54;;;;;;;;;;;;;;;17.96;61.03;100943.78;15558041;28;20406;-74
2023/05/10 21:53:28;;;;;;;1.40;0.68;;;;;;;17.94;60.89;100940.50;15593223;28;20415;-73
2023/05/10 22:01:02;;;;;;;3.30;1.57;;;;;;;17.83;61.90;100947.72;15592164;28;20042;-73
2023/05/10 22:08:35;;;;;;;1.98;0.93;;;;;;;17.73;61.47;100950.31;15576217;28;21355;-73
2023/05/10 22:16:09;;;;;;;1.88;1.40;;;;;;;17.77;61.68;100950.63;15609560;28;20095;-72
2023/05/10 22:23:44;;;;;;;0.63;0.60;;;;;;;17.71;61.77;100955.13;15604574;28;20041;-73
2023/05/10 22:31:18;;;;;;;1.33;0.85;;;;;;;17.24;63.52;100950.16;15582869;28;20041;-73
2023/05/10 22:38:51;;;;;;;0.70;0.68;;;;;;;17.53;62.18;100950.00;15601842;28;20084;-74
2023/05/10 22:46:25;;;;;;;1.30;1.00;;;;;;;17.36;62.15;100963.63;15597364;28;20557;-72
2023/05/10 22:53:57;;;;;;;2.53;1.40;;;;;;;17.12;62.66;100962.19;15596286;28;20410;-73
2023/05/10 23:01:35;;;;;;;2.50;1.00;;;;;;;16.86;63.17;100956.34;15601886;28;20453;-74
2023/05/10 23:09:07;;;;;;;1.77;1.02;;;;;;;16.66;63.58;100964.94;15606149;23;20045;-52
2023/05/10 23:16:44;;;;;;;1.38;0.85;;;;;;;16.45;64.36;100973.78;15619165;28;20045;-52
2023/05/10 23:24:17;;;;;;;1.60;1.02;;;;;;;16.18;64.61;100974.38;15603749;28;20034;-54
2023/05/10 23:31:54;;;;;;;1.65;1.45;;;;;;;15.84;65.92;100969.88;15559317;28;20038;-51
2023/05/10 23:39:28;;;;;;;6.93;2.42;;;;;;;15.84;65.37;100967.19;15589225;28;20497;-55
2023/05/10 23:47:02;;;;;;;2.22;1.02;;;;;;;15.51;66.10;100966.72;15556896;28;20046;-51
2023/05/10 23:54:34;;;;;;;3.15;1.50;;;;;;;15.32;66.09;100973.34;15585716;28;20037;-54
